Terminal Aerodrome Forecast
Issued by NWS

Home | Current Version | Previous Version | Text Only | Print | Product List | Glossary On
Versions: 1 2 3 4 5 6 7 8 9 10 11 12 13 14 15
000
FTUS46 KPDT 071731
TAFBDN
TAF
KBDN 071731Z 0718/0818 32009KT P6SM SCT080 SCT120
     FM072200 34012G19KT P6SM VCTS FEW040CB BKN070CB BKN100CB
     FM080300 VRB04KT P6SM SCT120 SCT250
     FM080900 21004KT P6SM SCT250
     FM081600 35005KT P6SM SCT250
      AMD NOT SKED=

USA.gov is the U.S. government's official web portal to all federal, state and local government web resources and services.